Gent, Belgium
Current Conditions -  °F | °C
As of 6:25 AM on Sunday 26 Oct 2014 (Local Time) from EHFS Reporting Station
Overcast Overcast  
Wind Chill: 55°   Ceiling: 3800
Heat Index: 55°   Visibility: 6mi
Dew Point: 52°   Wind: 14mph
Humidity: 88%   Direction: 200°SSW
Pressure: 30.18"   Gusts: NA
Location:  51.08°N, 3.71°E
Report Text: EHFS 260425Z AUTO 20012KT 9999 OVC038/// 13/11 Q1022
Loading
Personal Weather Stations






























Interactive Weather Map
Tropical Storm Tracking
New forecast layout! Learn more

10-Day Weather Forecast

Advertisements
Track Severe Weather on mobile